sensor_id;sensor_type;location;lat;lon;timestamp;P1;durP1;ratioP1;P2;durP2;ratioP2
11443;SDS011;5778;47.856;12.154;2023-04-02T00:00:13;0.50;;;0.50;;
11443;SDS011;5778;47.856;12.154;2023-04-02T00:02:44;0.70;;;0.63;;
11443;SDS011;5778;47.856;12.154;2023-04-02T00:05:28;0.60;;;0.60;;
11443;SDS011;5778;47.856;12.154;2023-04-02T00:08:20;0.93;;;0.50;;
11443;SDS011;5778;47.856;12.154;2023-04-02T00:10:48;0.73;;;0.60;;
11443;SDS011;5778;47.856;12.154;2023-04-02T00:13:21;0.50;;;0.50;;
11443;SDS011;5778;47.856;12.154;2023-04-02T00:15:53;0.40;;;0.40;;
11443;SDS011;5778;47.856;12.154;2023-04-02T00:18:22;0.37;;;0.37;;
11443;SDS011;5778;47.856;12.154;2023-04-02T00:20:49;0.83;;;0.60;;
11443;SDS011;5778;47.856;12.154;2023-04-02T00:26:28;0.73;;;0.60;;
11443;SDS011;5778;47.856;12.154;2023-04-02T00:28:59;0.50;;;0.50;;
11443;SDS011;5778;47.856;12.154;2023-04-02T00:31:27;0.97;;;0.70;;
11443;SDS011;5778;47.856;12.154;2023-04-02T00:34:01;0.50;;;0.50;;
11443;SDS011;5778;47.856;12.154;2023-04-02T00:36:30;0.40;;;0.40;;
11443;SDS011;5778;47.856;12.154;2023-04-02T00:39:01;0.60;;;0.60;;
11443;SDS011;5778;47.856;12.154;2023-04-02T00:41:32;0.60;;;0.40;;
11443;SDS011;5778;47.856;12.154;2023-04-02T00:44:11;0.50;;;0.50;;
11443;SDS011;5778;47.856;12.154;2023-04-02T00:46:39;1.20;;;0.70;;
11443;SDS011;5778;47.856;12.154;2023-04-02T00:49:13;0.60;;;0.60;;
11443;SDS011;5778;47.856;12.154;2023-04-02T00:52:04;1.03;;;0.47;;
11443;SDS011;5778;47.856;12.154;2023-04-02T00:57:55;0.77;;;0.53;;
11443;SDS011;5778;47.856;12.154;2023-04-02T01:00:28;0.50;;;0.50;;
11443;SDS011;5778;47.856;12.154;2023-04-02T01:06:01;1.07;;;0.43;;
11443;SDS011;5778;47.856;12.154;2023-04-02T01:08:50;0.60;;;0.60;;
11443;SDS011;5778;47.856;12.154;2023-04-02T01:11:31;2.53;;;0.60;;
11443;SDS011;5778;47.856;12.154;2023-04-02T01:26:52;2.40;;;0.60;;
11443;SDS011;5778;47.856;12.154;2023-04-02T01:29:24;0.90;;;0.50;;
11443;SDS011;5778;47.856;12.154;2023-04-02T01:31:55;0.37;;;0.37;;
11443;SDS011;5778;47.856;12.154;2023-04-02T01:37:52;0.90;;;0.47;;
11443;SDS011;5778;47.856;12.154;2023-04-02T01:40:30;0.50;;;0.50;;
11443;SDS011;5778;47.856;12.154;2023-04-02T01:43:24;0.33;;;0.33;;
11443;SDS011;5778;47.856;12.154;2023-04-02T01:45:57;0.30;;;0.30;;
11443;SDS011;5778;47.856;12.154;2023-04-02T01:48:27;0.40;;;0.40;;
11443;SDS011;5778;47.856;12.154;2023-04-02T01:50:57;0.40;;;0.40;;
11443;SDS011;5778;47.856;12.154;2023-04-02T01:53:41;0.50;;;0.40;;
11443;SDS011;5778;47.856;12.154;2023-04-02T01:56:08;0.30;;;0.30;;
11443;SDS011;5778;47.856;12.154;2023-04-02T01:58:35;0.40;;;0.40;;
11443;SDS011;5778;47.856;12.154;2023-04-02T02:01:04;0.70;;;0.40;;
11443;SDS011;5778;47.856;12.154;2023-04-02T02:06:59;0.60;;;0.50;;
11443;SDS011;5778;47.856;12.154;2023-04-02T02:09:28;1.03;;;0.80;;
11443;SDS011;5778;47.856;12.154;2023-04-02T02:11:58;0.60;;;0.60;;
11443;SDS011;5778;47.856;12.154;2023-04-02T02:14:30;0.53;;;0.53;;
11443;SDS011;5778;47.856;12.154;2023-04-02T02:17:00;0.57;;;0.57;;
11443;SDS011;5778;47.856;12.154;2023-04-02T02:19:28;0.87;;;0.70;;
11443;SDS011;5778;47.856;12.154;2023-04-02T02:22:02;0.63;;;0.53;;
11443;SDS011;5778;47.856;12.154;2023-04-02T02:27:50;3.40;;;0.67;;
11443;SDS011;5778;47.856;12.154;2023-04-02T02:30:26;0.83;;;0.60;;
11443;SDS011;5778;47.856;12.154;2023-04-02T02:33:02;0.60;;;0.60;;
11443;SDS011;5778;47.856;12.154;2023-04-02T02:35:35;1.03;;;0.50;;
11443;SDS011;5778;47.856;12.154;2023-04-02T02:38:21;0.80;;;0.47;;
11443;SDS011;5778;47.856;12.154;2023-04-02T02:41:02;0.53;;;0.50;;
11443;SDS011;5778;47.856;12.154;2023-04-02T02:43:54;1.33;;;0.40;;
11443;SDS011;5778;47.856;12.154;2023-04-02T02:46:26;0.70;;;0.40;;
11443;SDS011;5778;47.856;12.154;2023-04-02T02:48:57;1.27;;;0.50;;
11443;SDS011;5778;47.856;12.154;2023-04-02T02:51:36;0.63;;;0.40;;
11443;SDS011;5778;47.856;12.154;2023-04-02T02:57:41;0.30;;;0.30;;
11443;SDS011;5778;47.856;12.154;2023-04-02T03:00:17;0.63;;;0.50;;
11443;SDS011;5778;47.856;12.154;2023-04-02T03:06:13;1.43;;;0.50;;
11443;SDS011;5778;47.856;12.154;2023-04-02T03:08:47;1.50;;;0.60;;
11443;SDS011;5778;47.856;12.154;2023-04-02T03:11:25;0.93;;;0.50;;
11443;SDS011;5778;47.856;12.154;2023-04-02T03:14:06;0.33;;;0.33;;
11443;SDS011;5778;47.856;12.154;2023-04-02T03:16:43;1.23;;;0.50;;
11443;SDS011;5778;47.856;12.154;2023-04-02T03:19:17;0.50;;;0.50;;
11443;SDS011;5778;47.856;12.154;2023-04-02T03:21:55;0.50;;;0.50;;
11443;SDS011;5778;47.856;12.154;2023-04-02T03:24:36;0.40;;;0.40;;
11443;SDS011;5778;47.856;12.154;2023-04-02T03:27:10;1.70;;;0.50;;
11443;SDS011;5778;47.856;12.154;2023-04-02T03:29:43;0.73;;;0.30;;
11443;SDS011;5778;47.856;12.154;2023-04-02T03:32:15;0.57;;;0.50;;
11443;SDS011;5778;47.856;12.154;2023-04-02T03:37:59;2.33;;;0.63;;
11443;SDS011;5778;47.856;12.154;2023-04-02T03:40:30;1.53;;;0.50;;
11443;SDS011;5778;47.856;12.154;2023-04-02T03:43:04;0.93;;;0.40;;
11443;SDS011;5778;47.856;12.154;2023-04-02T03:45:43;0.97;;;0.60;;
11443;SDS011;5778;47.856;12.154;2023-04-02T03:48:17;1.43;;;0.40;;
11443;SDS011;5778;47.856;12.154;2023-04-02T03:50:51;0.50;;;0.50;;
11443;SDS011;5778;47.856;12.154;2023-04-02T03:53:26;1.00;;;0.60;;
11443;SDS011;5778;47.856;12.154;2023-04-02T03:55:57;1.13;;;0.50;;
11443;SDS011;5778;47.856;12.154;2023-04-02T03:58:26;0.40;;;0.40;;
11443;SDS011;5778;47.856;12.154;2023-04-02T04:00:59;0.73;;;0.50;;
11443;SDS011;5778;47.856;12.154;2023-04-02T04:03:36;0.67;;;0.50;;
11443;SDS011;5778;47.856;12.154;2023-04-02T04:06:07;0.50;;;0.50;;
11443;SDS011;5778;47.856;12.154;2023-04-02T04:08:44;0.40;;;0.40;;
11443;SDS011;5778;47.856;12.154;2023-04-02T04:11:16;1.57;;;0.60;;
11443;SDS011;5778;47.856;12.154;2023-04-02T04:13:58;0.50;;;0.50;;
11443;SDS011;5778;47.856;12.154;2023-04-02T04:16:31;2.03;;;0.70;;
11443;SDS011;5778;47.856;12.154;2023-04-02T04:19:09;0.50;;;0.50;;
11443;SDS011;5778;47.856;12.154;2023-04-02T04:21:44;0.43;;;0.43;;
11443;SDS011;5778;47.856;12.154;2023-04-02T04:24:26;2.13;;;0.50;;
11443;SDS011;5778;47.856;12.154;2023-04-02T04:26:59;1.10;;;0.40;;
11443;SDS011;5778;47.856;12.154;2023-04-02T04:29:37;1.00;;;0.47;;
11443;SDS011;5778;47.856;12.154;2023-04-02T04:32:16;0.80;;;0.30;;
11443;SDS011;5778;47.856;12.154;2023-04-02T04:35:07;1.13;;;0.50;;
11443;SDS011;5778;47.856;12.154;2023-04-02T04:37:46;0.40;;;0.40;;
11443;SDS011;5778;47.856;12.154;2023-04-02T04:40:25;0.40;;;0.40;;
11443;SDS011;5778;47.856;12.154;2023-04-02T04:46:21;1.80;;;1.70;;
11443;SDS011;5778;47.856;12.154;2023-04-02T04:48:52;2.93;;;2.60;;
11443;SDS011;5778;47.856;12.154;2023-04-02T04:51:26;2.00;;;1.20;;
11443;SDS011;5778;47.856;12.154;2023-04-02T04:54:15;0.60;;;0.60;;
11443;SDS011;5778;47.856;12.154;2023-04-02T04:56:48;1.07;;;0.60;;
11443;SDS011;5778;47.856;12.154;2023-04-02T04:59:20;0.87;;;0.47;;
11443;SDS011;5778;47.856;12.154;2023-04-02T05:01:54;0.70;;;0.47;;
11443;SDS011;5778;47.856;12.154;2023-04-02T05:04:33;0.73;;;0.53;;
11443;SDS011;5778;47.856;12.154;2023-04-02T05:07:06;0.37;;;0.30;;
11443;SDS011;5778;47.856;12.154;2023-04-02T05:09:37;1.47;;;0.43;;
11443;SDS011;5778;47.856;12.154;2023-04-02T05:12:15;0.60;;;0.50;;
11443;SDS011;5778;47.856;12.154;2023-04-02T05:15:03;0.83;;;0.57;;
11443;SDS011;5778;47.856;12.154;2023-04-02T05:17:41;0.60;;;0.50;;
11443;SDS011;5778;47.856;12.154;2023-04-02T05:20:15;0.80;;;0.50;;
11443;SDS011;5778;47.856;12.154;2023-04-02T05:22:51;0.50;;;0.50;;
11443;SDS011;5778;47.856;12.154;2023-04-02T05:25:24;0.57;;;0.40;;
11443;SDS011;5778;47.856;12.154;2023-04-02T05:27:56;0.43;;;0.43;;
11443;SDS011;5778;47.856;12.154;2023-04-02T05:30:37;0.50;;;0.50;;
11443;SDS011;5778;47.856;12.154;2023-04-02T05:36:11;1.23;;;0.70;;
11443;SDS011;5778;47.856;12.154;2023-04-02T05:38:49;2.07;;;0.50;;
11443;SDS011;5778;47.856;12.154;2023-04-02T05:41:24;0.57;;;0.50;;
11443;SDS011;5778;47.856;12.154;2023-04-02T05:47:20;0.50;;;0.50;;
11443;SDS011;5778;47.856;12.154;2023-04-02T05:49:54;1.37;;;0.50;;
11443;SDS011;5778;47.856;12.154;2023-04-02T05:52:29;0.83;;;0.50;;
11443;SDS011;5778;47.856;12.154;2023-04-02T05:58:03;0.50;;;0.50;;
11443;SDS011;5778;47.856;12.154;2023-04-02T06:00:41;0.70;;;0.70;;
11443;SDS011;5778;47.856;12.154;2023-04-02T06:03:26;0.93;;;0.77;;
11443;SDS011;5778;47.856;12.154;2023-04-02T06:06:03;2.67;;;1.03;;
11443;SDS011;5778;47.856;12.154;2023-04-02T06:08:40;1.07;;;0.57;;
11443;SDS011;5778;47.856;12.154;2023-04-02T06:11:15;0.93;;;0.70;;
11443;SDS011;5778;47.856;12.154;2023-04-02T06:13:50;2.17;;;0.80;;
11443;SDS011;5778;47.856;12.154;2023-04-02T06:16:22;0.63;;;0.63;;
11443;SDS011;5778;47.856;12.154;2023-04-02T06:18:53;0.40;;;0.40;;
11443;SDS011;5778;47.856;12.154;2023-04-02T06:21:22;0.73;;;0.60;;
11443;SDS011;5778;47.856;12.154;2023-04-02T06:27:45;1.17;;;0.70;;
11443;SDS011;5778;47.856;12.154;2023-04-02T06:30:19;0.70;;;0.70;;
11443;SDS011;5778;47.856;12.154;2023-04-02T06:36:40;0.60;;;0.60;;
11443;SDS011;5778;47.856;12.154;2023-04-02T06:39:10;1.80;;;1.30;;
11443;SDS011;5778;47.856;12.154;2023-04-02T06:41:46;1.00;;;1.00;;
11443;SDS011;5778;47.856;12.154;2023-04-02T06:44:39;1.10;;;0.90;;
11443;SDS011;5778;47.856;12.154;2023-04-02T06:47:28;2.10;;;0.90;;
11443;SDS011;5778;47.856;12.154;2023-04-02T06:50:00;1.63;;;0.80;;
11443;SDS011;5778;47.856;12.154;2023-04-02T06:52:35;0.90;;;0.80;;
11443;SDS011;5778;47.856;12.154;2023-04-02T06:55:16;0.60;;;0.60;;
11443;SDS011;5778;47.856;12.154;2023-04-02T06:57:54;0.83;;;0.80;;
11443;SDS011;5778;47.856;12.154;2023-04-02T07:00:23;0.80;;;0.80;;
11443;SDS011;5778;47.856;12.154;2023-04-02T07:02:55;1.20;;;1.10;;
11443;SDS011;5778;47.856;12.154;2023-04-02T07:05:24;0.80;;;0.80;;
11443;SDS011;5778;47.856;12.154;2023-04-02T07:07:54;0.87;;;0.80;;
11443;SDS011;5778;47.856;12.154;2023-04-02T07:10:21;0.63;;;0.63;;
11443;SDS011;5778;47.856;12.154;2023-04-02T07:12:48;1.60;;;0.70;;
11443;SDS011;5778;47.856;12.154;2023-04-02T07:15:15;0.90;;;0.73;;
11443;SDS011;5778;47.856;12.154;2023-04-02T07:17:43;2.00;;;1.00;;
11443;SDS011;5778;47.856;12.154;2023-04-02T07:20:19;1.10;;;0.97;;
11443;SDS011;5778;47.856;12.154;2023-04-02T07:25:51;1.37;;;0.90;;
11443;SDS011;5778;47.856;12.154;2023-04-02T07:28:19;0.60;;;0.60;;
11443;SDS011;5778;47.856;12.154;2023-04-02T07:30:47;0.70;;;0.60;;
11443;SDS011;5778;47.856;12.154;2023-04-02T07:33:15;1.13;;;0.60;;
11443;SDS011;5778;47.856;12.154;2023-04-02T07:35:43;1.63;;;0.70;;
11443;SDS011;5778;47.856;12.154;2023-04-02T07:38:10;0.80;;;0.60;;
11443;SDS011;5778;47.856;12.154;2023-04-02T07:40:39;0.87;;;0.70;;
11443;SDS011;5778;47.856;12.154;2023-04-02T07:46:28;0.70;;;0.70;;
11443;SDS011;5778;47.856;12.154;2023-04-02T07:48:55;2.10;;;0.60;;
11443;SDS011;5778;47.856;12.154;2023-04-02T07:51:22;0.80;;;0.80;;
11443;SDS011;5778;47.856;12.154;2023-04-02T07:57:40;3.30;;;0.83;;
11443;SDS011;5778;47.856;12.154;2023-04-02T08:00:14;0.70;;;0.70;;
11443;SDS011;5778;47.856;12.154;2023-04-02T08:02:41;1.73;;;0.80;;
11443;SDS011;5778;47.856;12.154;2023-04-02T08:05:08;0.70;;;0.70;;
11443;SDS011;5778;47.856;12.154;2023-04-02T08:07:36;1.50;;;0.90;;
11443;SDS011;5778;47.856;12.154;2023-04-02T08:10:03;0.90;;;0.70;;
11443;SDS011;5778;47.856;12.154;2023-04-02T08:12:31;1.30;;;1.10;;
11443;SDS011;5778;47.856;12.154;2023-04-02T08:15:08;1.03;;;0.90;;
11443;SDS011;5778;47.856;12.154;2023-04-02T08:17:39;2.03;;;1.50;;
11443;SDS011;5778;47.856;12.154;2023-04-02T08:20:08;1.73;;;1.30;;
11443;SDS011;5778;47.856;12.154;2023-04-02T08:22:39;1.47;;;1.00;;
11443;SDS011;5778;47.856;12.154;2023-04-02T08:25:06;0.87;;;0.73;;
11443;SDS011;5778;47.856;12.154;2023-04-02T08:27:34;1.20;;;0.70;;
11443;SDS011;5778;47.856;12.154;2023-04-02T08:30:02;1.67;;;0.90;;
11443;SDS011;5778;47.856;12.154;2023-04-02T08:32:30;1.17;;;1.00;;
11443;SDS011;5778;47.856;12.154;2023-04-02T08:37:50;1.27;;;0.80;;
11443;SDS011;5778;47.856;12.154;2023-04-02T08:40:19;1.30;;;0.80;;
11443;SDS011;5778;47.856;12.154;2023-04-02T08:46:15;1.27;;;0.67;;
11443;SDS011;5778;47.856;12.154;2023-04-02T08:48:50;0.80;;;0.70;;
11443;SDS011;5778;47.856;12.154;2023-04-02T08:51:22;1.07;;;0.70;;
11443;SDS011;5778;47.856;12.154;2023-04-02T08:53:52;0.93;;;0.70;;
11443;SDS011;5778;47.856;12.154;2023-04-02T08:56:25;1.70;;;1.00;;
11443;SDS011;5778;47.856;12.154;2023-04-02T08:58:58;1.47;;;1.10;;
11443;SDS011;5778;47.856;12.154;2023-04-02T09:01:34;1.17;;;0.90;;
11443;SDS011;5778;47.856;12.154;2023-04-02T09:04:19;3.03;;;0.90;;
11443;SDS011;5778;47.856;12.154;2023-04-02T09:06:48;0.40;;;0.40;;
11443;SDS011;5778;47.856;12.154;2023-04-02T09:09:17;0.63;;;0.63;;
11443;SDS011;5778;47.856;12.154;2023-04-02T09:11:47;1.23;;;0.50;;
11443;SDS011;5778;47.856;12.154;2023-04-02T09:14:20;1.50;;;0.60;;
11443;SDS011;5778;47.856;12.154;2023-04-02T09:16:52;0.73;;;0.73;;
11443;SDS011;5778;47.856;12.154;2023-04-02T09:19:23;0.97;;;0.80;;
11443;SDS011;5778;47.856;12.154;2023-04-02T09:21:54;1.10;;;1.00;;
11443;SDS011;5778;47.856;12.154;2023-04-02T09:24:37;1.50;;;0.83;;
11443;SDS011;5778;47.856;12.154;2023-04-02T09:27:10;1.37;;;0.60;;
11443;SDS011;5778;47.856;12.154;2023-04-02T09:29:43;1.40;;;0.80;;
11443;SDS011;5778;47.856;12.154;2023-04-02T09:32:16;0.77;;;0.73;;
11443;SDS011;5778;47.856;12.154;2023-04-02T09:37:41;0.90;;;0.90;;
11443;SDS011;5778;47.856;12.154;2023-04-02T09:45:58;0.87;;;0.87;;
11443;SDS011;5778;47.856;12.154;2023-04-02T09:48:27;1.00;;;0.90;;
11443;SDS011;5778;47.856;12.154;2023-04-02T09:51:04;0.70;;;0.70;;
11443;SDS011;5778;47.856;12.154;2023-04-02T09:56:33;1.17;;;0.90;;
11443;SDS011;5778;47.856;12.154;2023-04-02T09:59:02;2.20;;;0.80;;
11443;SDS011;5778;47.856;12.154;2023-04-02T10:01:32;0.50;;;0.50;;
11443;SDS011;5778;47.856;12.154;2023-04-02T10:07:31;1.00;;;0.70;;
11443;SDS011;5778;47.856;12.154;2023-04-02T10:10:00;0.67;;;0.67;;
11443;SDS011;5778;47.856;12.154;2023-04-02T10:12:29;2.33;;;1.03;;
11443;SDS011;5778;47.856;12.154;2023-04-02T10:15:05;1.37;;;0.50;;
11443;SDS011;5778;47.856;12.154;2023-04-02T10:17:39;1.17;;;0.80;;
11443;SDS011;5778;47.856;12.154;2023-04-02T10:20:07;0.60;;;0.57;;
11443;SDS011;5778;47.856;12.154;2023-04-02T10:22:44;0.67;;;0.50;;
11443;SDS011;5778;47.856;12.154;2023-04-02T10:25:12;1.03;;;0.80;;
11443;SDS011;5778;47.856;12.154;2023-04-02T10:27:41;0.60;;;0.60;;
11443;SDS011;5778;47.856;12.154;2023-04-02T10:30:17;0.90;;;0.70;;
11443;SDS011;5778;47.856;12.154;2023-04-02T10:36:18;0.50;;;0.50;;
11443;SDS011;5778;47.856;12.154;2023-04-02T10:38:56;0.40;;;0.40;;
11443;SDS011;5778;47.856;12.154;2023-04-02T10:41:30;1.17;;;0.73;;
11443;SDS011;5778;47.856;12.154;2023-04-02T10:47:19;0.60;;;0.60;;
11443;SDS011;5778;47.856;12.154;2023-04-02T10:49:55;1.10;;;1.00;;
11443;SDS011;5778;47.856;12.154;2023-04-02T10:52:37;0.70;;;0.70;;
11443;SDS011;5778;47.856;12.154;2023-04-02T10:55:12;1.33;;;0.70;;
11443;SDS011;5778;47.856;12.154;2023-04-02T10:57:42;0.60;;;0.60;;
11443;SDS011;5778;47.856;12.154;2023-04-02T11:00:15;1.23;;;0.47;;
11443;SDS011;5778;47.856;12.154;2023-04-02T11:06:01;0.80;;;0.70;;
11443;SDS011;5778;47.856;12.154;2023-04-02T11:08:37;1.30;;;0.50;;
11443;SDS011;5778;47.856;12.154;2023-04-02T11:11:10;0.87;;;0.63;;
11443;SDS011;5778;47.856;12.154;2023-04-02T11:13:45;1.93;;;0.50;;
11443;SDS011;5778;47.856;12.154;2023-04-02T11:16:17;1.27;;;0.90;;
11443;SDS011;5778;47.856;12.154;2023-04-02T11:21:50;2.10;;;1.40;;
11443;SDS011;5778;47.856;12.154;2023-04-02T11:27:15;1.40;;;0.90;;
11443;SDS011;5778;47.856;12.154;2023-04-02T11:29:46;1.37;;;0.70;;
11443;SDS011;5778;47.856;12.154;2023-04-02T11:32:35;1.07;;;0.73;;
11443;SDS011;5778;47.856;12.154;2023-04-02T11:37:52;1.33;;;0.70;;
11443;SDS011;5778;47.856;12.154;2023-04-02T11:49:32;0.73;;;0.60;;
11443;SDS011;5778;47.856;12.154;2023-04-02T11:52:01;1.27;;;1.00;;
11443;SDS011;5778;47.856;12.154;2023-04-02T11:57:24;0.50;;;0.50;;
11443;SDS011;5778;47.856;12.154;2023-04-02T12:00:10;0.50;;;0.50;;
11443;SDS011;5778;47.856;12.154;2023-04-02T12:05:47;1.33;;;0.97;;
11443;SDS011;5778;47.856;12.154;2023-04-02T12:08:23;1.07;;;1.00;;
11443;SDS011;5778;47.856;12.154;2023-04-02T12:10:57;0.40;;;0.37;;
11443;SDS011;5778;47.856;12.154;2023-04-02T12:16:18;2.33;;;1.20;;
11443;SDS011;5778;47.856;12.154;2023-04-02T12:18:50;0.90;;;0.70;;
11443;SDS011;5778;47.856;12.154;2023-04-02T12:21:20;1.03;;;0.70;;
11443;SDS011;5778;47.856;12.154;2023-04-02T12:27:08;1.03;;;0.90;;
11443;SDS011;5778;47.856;12.154;2023-04-02T12:29:39;3.57;;;2.90;;
11443;SDS011;5778;47.856;12.154;2023-04-02T12:32:07;0.50;;;0.50;;
11443;SDS011;5778;47.856;12.154;2023-04-02T12:34:53;0.70;;;0.70;;
11443;SDS011;5778;47.856;12.154;2023-04-02T12:37:22;1.53;;;1.10;;
11443;SDS011;5778;47.856;12.154;2023-04-02T12:39:55;1.20;;;0.60;;
11443;SDS011;5778;47.856;12.154;2023-04-02T12:42:27;3.30;;;1.60;;
11443;SDS011;5778;47.856;12.154;2023-04-02T12:48:18;1.50;;;1.13;;
11443;SDS011;5778;47.856;12.154;2023-04-02T12:50:47;0.60;;;0.60;;
11443;SDS011;5778;47.856;12.154;2023-04-02T12:53:33;1.00;;;0.60;;
11443;SDS011;5778;47.856;12.154;2023-04-02T12:56:02;0.93;;;0.93;;
11443;SDS011;5778;47.856;12.154;2023-04-02T12:58:31;1.23;;;1.13;;
11443;SDS011;5778;47.856;12.154;2023-04-02T13:01:13;1.50;;;0.90;;
11443;SDS011;5778;47.856;12.154;2023-04-02T13:07:13;1.53;;;0.93;;
11443;SDS011;5778;47.856;12.154;2023-04-02T13:09:44;0.50;;;0.50;;
11443;SDS011;5778;47.856;12.154;2023-04-02T13:12:22;1.20;;;0.90;;
11443;SDS011;5778;47.856;12.154;2023-04-02T13:14:51;0.80;;;0.80;;
11443;SDS011;5778;47.856;12.154;2023-04-02T13:17:36;1.73;;;0.83;;
11443;SDS011;5778;47.856;12.154;2023-04-02T13:20:26;0.77;;;0.77;;
11443;SDS011;5778;47.856;12.154;2023-04-02T13:26:13;3.03;;;1.30;;
11443;SDS011;5778;47.856;12.154;2023-04-02T13:28:43;2.40;;;1.60;;
11443;SDS011;5778;47.856;12.154;2023-04-02T13:31:21;1.97;;;1.30;;
11443;SDS011;5778;47.856;12.154;2023-04-02T13:36:59;1.53;;;0.70;;
11443;SDS011;5778;47.856;12.154;2023-04-02T13:39:26;0.80;;;0.80;;
11443;SDS011;5778;47.856;12.154;2023-04-02T13:41:56;1.23;;;1.10;;
11443;SDS011;5778;47.856;12.154;2023-04-02T13:48:12;1.20;;;1.10;;
11443;SDS011;5778;47.856;12.154;2023-04-02T13:50:42;1.33;;;1.10;;
11443;SDS011;5778;47.856;12.154;2023-04-02T13:53:14;2.43;;;1.10;;
11443;SDS011;5778;47.856;12.154;2023-04-02T13:55:45;0.80;;;0.80;;
11443;SDS011;5778;47.856;12.154;2023-04-02T13:58:15;1.23;;;1.10;;
11443;SDS011;5778;47.856;12.154;2023-04-02T14:00:43;1.70;;;1.60;;
11443;SDS011;5778;47.856;12.154;2023-04-02T14:06:18;1.27;;;0.87;;
11443;SDS011;5778;47.856;12.154;2023-04-02T14:08:55;1.40;;;0.90;;
11443;SDS011;5778;47.856;12.154;2023-04-02T14:11:31;2.40;;;1.57;;
11443;SDS011;5778;47.856;12.154;2023-04-02T14:17:10;1.70;;;1.17;;
11443;SDS011;5778;47.856;12.154;2023-04-02T14:19:51;1.90;;;1.20;;
11443;SDS011;5778;47.856;12.154;2023-04-02T14:22:32;1.30;;;1.20;;
11443;SDS011;5778;47.856;12.154;2023-04-02T14:25:15;1.13;;;1.03;;
11443;SDS011;5778;47.856;12.154;2023-04-02T14:27:52;1.63;;;1.33;;
11443;SDS011;5778;47.856;12.154;2023-04-02T14:30:30;1.13;;;1.00;;
11443;SDS011;5778;47.856;12.154;2023-04-02T14:33:12;4.37;;;1.40;;
11443;SDS011;5778;47.856;12.154;2023-04-02T14:35:48;2.30;;;1.53;;
11443;SDS011;5778;47.856;12.154;2023-04-02T14:38:21;2.30;;;1.47;;
11443;SDS011;5778;47.856;12.154;2023-04-02T14:40:54;1.50;;;1.20;;
11443;SDS011;5778;47.856;12.154;2023-04-02T14:47:18;1.40;;;1.20;;
11443;SDS011;5778;47.856;12.154;2023-04-02T14:49:50;2.77;;;1.50;;
11443;SDS011;5778;47.856;12.154;2023-04-02T14:52:22;1.17;;;1.00;;
11443;SDS011;5778;47.856;12.154;2023-04-02T14:58:20;2.03;;;1.83;;
11443;SDS011;5778;47.856;12.154;2023-04-02T15:00:52;1.80;;;1.70;;
11443;SDS011;5778;47.856;12.154;2023-04-02T15:03:27;1.00;;;1.00;;
11443;SDS011;5778;47.856;12.154;2023-04-02T15:05:57;2.53;;;2.33;;
11443;SDS011;5778;47.856;12.154;2023-04-02T15:08:26;4.67;;;4.20;;
11443;SDS011;5778;47.856;12.154;2023-04-02T15:10:57;3.57;;;2.60;;
11443;SDS011;5778;47.856;12.154;2023-04-02T15:16:29;3.73;;;2.97;;
11443;SDS011;5778;47.856;12.154;2023-04-02T15:18:59;2.17;;;2.07;;
11443;SDS011;5778;47.856;12.154;2023-04-02T15:21:36;0.90;;;0.90;;
11443;SDS011;5778;47.856;12.154;2023-04-02T15:27:26;1.67;;;1.20;;
11443;SDS011;5778;47.856;12.154;2023-04-02T15:30:03;1.20;;;0.90;;
11443;SDS011;5778;47.856;12.154;2023-04-02T15:32:36;1.70;;;1.50;;
11443;SDS011;5778;47.856;12.154;2023-04-02T15:35:17;2.47;;;1.80;;
11443;SDS011;5778;47.856;12.154;2023-04-02T15:37:54;2.43;;;2.07;;
11443;SDS011;5778;47.856;12.154;2023-04-02T15:40:28;1.63;;;1.53;;
11443;SDS011;5778;47.856;12.154;2023-04-02T15:43:13;1.17;;;1.10;;
11443;SDS011;5778;47.856;12.154;2023-04-02T15:45:47;2.03;;;1.47;;
11443;SDS011;5778;47.856;12.154;2023-04-02T15:48:25;1.90;;;1.40;;
11443;SDS011;5778;47.856;12.154;2023-04-02T15:51:28;2.17;;;1.57;;
11443;SDS011;5778;47.856;12.154;2023-04-02T16:00:45;0.40;;;0.40;;
11443;SDS011;5778;47.856;12.154;2023-04-02T16:03:30;0.70;;;0.70;;
11443;SDS011;5778;47.856;12.154;2023-04-02T16:06:09;1.43;;;1.33;;
11443;SDS011;5778;47.856;12.154;2023-04-02T16:09:00;1.47;;;1.37;;
11443;SDS011;5778;47.856;12.154;2023-04-02T16:11:32;0.90;;;0.90;;
11443;SDS011;5778;47.856;12.154;2023-04-02T16:14:15;1.00;;;1.00;;
11443;SDS011;5778;47.856;12.154;2023-04-02T16:16:49;1.10;;;1.10;;
11443;SDS011;5778;47.856;12.154;2023-04-02T16:19:21;1.23;;;1.20;;
11443;SDS011;5778;47.856;12.154;2023-04-02T16:21:55;1.27;;;1.20;;
11443;SDS011;5778;47.856;12.154;2023-04-02T16:27:23;1.70;;;1.60;;
11443;SDS011;5778;47.856;12.154;2023-04-02T16:30:03;1.50;;;1.40;;
11443;SDS011;5778;47.856;12.154;2023-04-02T16:36:20;3.17;;;2.70;;
11443;SDS011;5778;47.856;12.154;2023-04-02T16:38:58;2.27;;;2.07;;
11443;SDS011;5778;47.856;12.154;2023-04-02T16:41:35;3.30;;;2.90;;
11443;SDS011;5778;47.856;12.154;2023-04-02T16:48:04;3.13;;;2.93;;
11443;SDS011;5778;47.856;12.154;2023-04-02T16:50:41;3.40;;;3.10;;
11443;SDS011;5778;47.856;12.154;2023-04-02T16:56:29;3.13;;;2.87;;
11443;SDS011;5778;47.856;12.154;2023-04-02T16:59:09;4.00;;;3.60;;
11443;SDS011;5778;47.856;12.154;2023-04-02T17:01:45;5.90;;;3.50;;
11443;SDS011;5778;47.856;12.154;2023-04-02T17:07:32;3.87;;;3.53;;
11443;SDS011;5778;47.856;12.154;2023-04-02T17:10:14;3.17;;;2.93;;
11443;SDS011;5778;47.856;12.154;2023-04-02T17:15:52;3.50;;;3.20;;
11443;SDS011;5778;47.856;12.154;2023-04-02T17:18:28;3.97;;;3.67;;
11443;SDS011;5778;47.856;12.154;2023-04-02T17:20:59;4.00;;;3.70;;
11443;SDS011;5778;47.856;12.154;2023-04-02T17:26:42;4.80;;;4.37;;
11443;SDS011;5778;47.856;12.154;2023-04-02T17:29:14;4.07;;;3.77;;
11443;SDS011;5778;47.856;12.154;2023-04-02T17:31:46;4.47;;;4.07;;
11443;SDS011;5778;47.856;12.154;2023-04-02T17:37:28;4.73;;;4.33;;
11443;SDS011;5778;47.856;12.154;2023-04-02T17:40:03;6.57;;;5.97;;
11443;SDS011;5778;47.856;12.154;2023-04-02T17:42:46;4.73;;;4.43;;
11443;SDS011;5778;47.856;12.154;2023-04-02T17:45:22;4.87;;;4.47;;
11443;SDS011;5778;47.856;12.154;2023-04-02T17:48:00;5.63;;;5.00;;
11443;SDS011;5778;47.856;12.154;2023-04-02T17:53:36;5.50;;;5.10;;
11443;SDS011;5778;47.856;12.154;2023-04-02T17:56:16;7.03;;;6.30;;
11443;SDS011;5778;47.856;12.154;2023-04-02T17:58:57;6.33;;;5.83;;
11443;SDS011;5778;47.856;12.154;2023-04-02T18:01:39;7.30;;;6.60;;
11443;SDS011;5778;47.856;12.154;2023-04-02T18:07:11;7.23;;;6.63;;
11443;SDS011;5778;47.856;12.154;2023-04-02T18:09:52;7.10;;;6.50;;
11443;SDS011;5778;47.856;12.154;2023-04-02T18:12:30;7.13;;;6.53;;
11443;SDS011;5778;47.856;12.154;2023-04-02T18:15:10;7.20;;;6.60;;
11443;SDS011;5778;47.856;12.154;2023-04-02T18:18:00;7.23;;;6.63;;
11443;SDS011;5778;47.856;12.154;2023-04-02T18:20:35;7.20;;;6.60;;
11443;SDS011;5778;47.856;12.154;2023-04-02T18:23:10;7.30;;;6.70;;
11443;SDS011;5778;47.856;12.154;2023-04-02T18:25:49;7.60;;;7.00;;
11443;SDS011;5778;47.856;12.154;2023-04-02T18:28:31;7.10;;;6.50;;
11443;SDS011;5778;47.856;12.154;2023-04-02T18:31:08;7.17;;;6.57;;
11443;SDS011;5778;47.856;12.154;2023-04-02T18:34:01;7.77;;;7.07;;
11443;SDS011;5778;47.856;12.154;2023-04-02T18:36:42;6.87;;;6.37;;
11443;SDS011;5778;47.856;12.154;2023-04-02T18:39:22;6.80;;;6.30;;
11443;SDS011;5778;47.856;12.154;2023-04-02T18:42:01;7.30;;;6.70;;
11443;SDS011;5778;47.856;12.154;2023-04-02T18:44:46;7.40;;;6.90;;
11443;SDS011;5778;47.856;12.154;2023-04-02T18:47:23;8.17;;;7.23;;
11443;SDS011;5778;47.856;12.154;2023-04-02T18:50:00;9.57;;;8.57;;
11443;SDS011;5778;47.856;12.154;2023-04-02T18:52:37;8.47;;;7.67;;
11443;SDS011;5778;47.856;12.154;2023-04-02T18:55:06;9.50;;;8.40;;
11443;SDS011;5778;47.856;12.154;2023-04-02T18:57:39;9.20;;;8.33;;
11443;SDS011;5778;47.856;12.154;2023-04-02T19:00:15;9.63;;;8.80;;